ADDS METAR Data INFO
IDs: Format: Raw Decoded Include TAF

Data at: 1549 UTC 12 Dec 2017

KSUA 121450Z 27007KT 7SM SKC 18/10 A3010
KSUA 121350Z 27006KT 7SM SKC 14/07 A3012
KSUA 121250Z 00000KT 7SM SKC 09/07 A3011
KSUA 121050Z 00000KT 7SM SKC 09/05 A3010
KSUA 121035Z AUTO 26003KT 10SM CLR 08/05 A3009 RMK AO2
KSUA 121015Z AUTO 00000KT 10SM CLR 08/05 A3010 RMK AO2
KSUA 120955Z AUTO 28004KT 10SM CLR 07/05 A3010 RMK AO2
KSUA 120935Z AUTO 28004KT 10SM CLR 07/04 A3010 RMK AO2
KSUA 120915Z AUTO 29004KT 10SM CLR 07/04 A3010 RMK AO2
KSUA 120855Z AUTO 28004KT 10SM CLR 08/05 A3011 RMK AO2
KSUA 120835Z AUTO 29005KT 10SM CLR 07/05 A3011 RMK AO2
KSUA 120755Z AUTO 00000KT 10SM CLR 07/06 A3012 RMK AO2
KSUA 120735Z AUTO 00000KT 10SM CLR 07/06 A3012 RMK AO2
KSUA 120715Z AUTO 00000KT 10SM CLR 07/06 A3013 RMK AO2
KSUA 120655Z AUTO 00000KT 10SM CLR 07/06 A3013 RMK AO2
KSUA 120635Z AUTO 00000KT 10SM CLR 08/07 A3014 RMK AO2
KSUA 120615Z AUTO 26003KT 10SM CLR 08/07 A3014 RMK AO2
KSUA 120555Z AUTO 00000KT 10SM CLR 08/07 A3015 RMK AO2
KSUA 120535Z AUTO 00000KT 10SM CLR 08/07 A3015 RMK AO2
KSUA 120515Z AUTO 00000KT 10SM CLR 09/08 A3015 RMK AO2
KSUA 120455Z AUTO 00000KT 10SM CLR 08/07 A3017 RMK AO2
KSUA 120435Z AUTO 00000KT 10SM CLR 08/07 A3018 RMK AO2
KSUA 120415Z AUTO 00000KT 10SM CLR 08/07 A3018 RMK AO2
KSUA 120355Z AUTO 00000KT 10SM CLR 08/07 A3018 RMK AO2
KSUA 120335Z AUTO 00000KT 10SM CLR 09/07 A3018 RMK AO2
KSUA 120315Z AUTO 00000KT 10SM CLR 10/07 A3019 RMK AO2
KSUA 120255Z AUTO 00000KT 10SM CLR 10/07 A3019 RMK AO2
KSUA 120247Z 00000KT 7SM SKC 10/08 A3019
KSUA 120235Z AUTO 00000KT 10SM CLR 10/08 A3020 RMK AO2
KSUA 120215Z AUTO 00000KT 10SM CLR 10/08 A3020 RMK AO2
KSUA 112347Z 34003KT 7SM SKC 14/07 A3018
KSUA 112250Z 36004KT 7SM SKC 15/07 A3018
KSUA 112150Z 00000KT 7SM SKC 17/07 A3016
KSUA 112050Z 36004KT 7SM SKC 18/07 A3018
KSUA 111950Z 36004KT 7SM SKC 18/07 A3018
KSUA 111850Z 34005KT 7SM SKC 18/06 A3019
KSUA 111750Z 33005KT 7SM SKC 18/07 A3021
KSUA 111647Z 35006KT 7SM SKC 17/07 A3025
KSUA 111547Z 32006KT 7SM SKC 16/06 A3028
KSUA 111447Z 32006KT 7SM SKC 14/04 A3029
KSUA 111347Z 30006KT 7SM SKC 12/04 A3030
KSUA 111247Z 33006KT 7SM SKC 09/04 A3030
KSUA 111147Z 33004KT 7SM SKC 09/04 A3030
KSUA 111035Z AUTO 31005KT 10SM CLR 08/05 A3029 RMK AO2
KSUA 111015Z AUTO 32006KT 10SM CLR 08/05 A3028 RMK AO2
KSUA 110955Z AUTO 32005KT 10SM CLR 08/05 A3028 RMK AO2
KSUA 110935Z AUTO 32007KT 10SM CLR 08/05 A3028 RMK AO2
KSUA 110915Z AUTO 32005KT 10SM CLR 09/04 A3028 RMK AO2
KSUA 110855Z AUTO 32005KT 10SM CLR 09/04 A3028 RMK AO2
KSUA 110835Z AUTO 32005KT 10SM CLR 09/03 A3027 RMK AO2
KSUA 110815Z AUTO 32004KT 10SM CLR 09/04 A3027 RMK AO2
KSUA 110755Z AUTO 32004KT 10SM CLR 10/03 A3027 RMK AO2
KSUA 110735Z AUTO 32007KT 10SM CLR 10/03 A3027 RMK AO2
KSUA 110715Z AUTO 32005KT 10SM CLR 10/03 A3028 RMK AO2
KSUA 110655Z AUTO 32005KT 10SM CLR 10/03 A3027 RMK AO2
KSUA 110635Z AUTO 32005KT 10SM CLR 10/03 A3027 RMK AO2
KSUA 110615Z AUTO 32004KT 10SM CLR 10/03 A3028 RMK AO2
KSUA 110555Z AUTO 31005KT 10SM CLR 10/03 A3028 RMK AO2
KSUA 110535Z AUTO 32004KT 10SM CLR 10/03 A3029 RMK AO2
KSUA 110515Z AUTO 31005KT 10SM CLR 10/05 A3029 RMK AO2
KSUA 110455Z AUTO 30005KT 10SM CLR 09/05 A3030 RMK AO2
KSUA 110435Z AUTO 29005KT 10SM CLR 10/05 A3031 RMK AO2
KSUA 110415Z AUTO 29005KT 10SM CLR 09/05 A3031 RMK AO2
KSUA 110355Z AUTO 28005KT 10SM CLR 09/05 A3031 RMK AO2